createdAt,value
2018-12-14T00:01:06.850Z,16.90
2018-12-14T00:03:34.402Z,18.87
2018-12-14T00:06:01.963Z,17.30
2018-12-14T00:08:29.522Z,19.48
2018-12-14T00:10:57.108Z,18.60
2018-12-14T00:13:24.663Z,18.20
2018-12-14T00:15:52.247Z,18.37
2018-12-14T00:18:19.891Z,17.57
2018-12-14T00:20:47.482Z,17.50
2018-12-14T00:23:15.070Z,16.93
2018-12-14T00:25:42.654Z,18.90
2018-12-14T00:28:10.239Z,16.93
2018-12-14T00:30:37.788Z,17.43
2018-12-14T00:33:05.401Z,18.00
2018-12-14T00:35:34.240Z,17.20
2018-12-14T00:38:01.784Z,18.63
2018-12-14T00:40:29.345Z,18.17
2018-12-14T00:42:56.957Z,16.93
2018-12-14T00:45:24.528Z,16.47
2018-12-14T00:47:52.222Z,17.40
2018-12-14T00:50:19.836Z,18.60
2018-12-14T00:52:47.380Z,17.47
2018-12-14T00:55:14.988Z,17.70
2018-12-14T00:57:42.535Z,15.60
2018-12-14T01:00:10.596Z,20.40
2018-12-14T01:02:38.287Z,19.67
2018-12-14T01:05:06.807Z,17.00
2018-12-14T01:07:34.478Z,15.30
2018-12-14T01:10:02.075Z,16.40
2018-12-14T01:12:29.670Z,15.70
2018-12-14T01:14:57.326Z,15.87
2018-12-14T01:17:24.935Z,15.40
2018-12-14T01:19:52.498Z,15.47
2018-12-14T01:22:20.217Z,15.13
2018-12-14T01:24:48.119Z,16.60
2018-12-14T01:27:15.685Z,15.87
2018-12-14T01:29:43.320Z,16.00
2018-12-14T01:32:10.881Z,16.80
2018-12-14T01:34:38.455Z,16.07
2018-12-14T01:37:06.026Z,16.77
2018-12-14T01:39:33.719Z,15.50
2018-12-14T01:42:04.889Z,17.10
2018-12-14T01:44:30.851Z,16.17
2018-12-14T01:46:58.429Z,15.60
2018-12-14T01:49:25.999Z,15.70
2018-12-14T01:51:53.549Z,17.30
2018-12-14T01:54:21.178Z,16.90
2018-12-14T01:56:48.781Z,16.93
2018-12-14T01:59:16.720Z,16.90
2018-12-14T02:01:45.110Z,16.40
2018-12-14T02:04:12.692Z,16.50
2018-12-14T02:06:40.281Z,17.50
2018-12-14T02:09:08.215Z,16.23
2018-12-14T02:11:36.042Z,16.50
2018-12-14T02:14:03.587Z,17.00
2018-12-14T02:16:31.149Z,16.07
2018-12-14T02:18:58.745Z,16.47
2018-12-14T02:21:26.319Z,17.10
2018-12-14T02:23:53.916Z,17.73
2018-12-14T02:26:21.575Z,17.20
2018-12-14T02:28:49.167Z,17.33
2018-12-14T02:31:16.818Z,16.60
2018-12-14T02:33:44.436Z,16.97
2018-12-14T02:36:11.986Z,17.90
2018-12-14T02:38:39.596Z,17.50
2018-12-14T02:41:07.181Z,16.77
2018-12-14T02:43:35.120Z,17.20
2018-12-14T02:46:02.658Z,17.23
2018-12-14T02:48:30.230Z,16.10
2018-12-14T02:50:57.834Z,17.70
2018-12-14T02:53:25.499Z,17.40
2018-12-14T02:55:53.084Z,17.40
2018-12-14T02:58:20.667Z,17.40
2018-12-14T03:00:48.288Z,17.23
2018-12-14T03:03:15.847Z,17.57
2018-12-14T03:05:43.549Z,17.77
2018-12-14T03:08:11.132Z,18.10
2018-12-14T03:10:39.067Z,17.70
2018-12-14T03:13:07.023Z,18.63
2018-12-14T03:15:34.577Z,19.77
2018-12-14T03:18:02.164Z,18.97
2018-12-14T03:20:29.718Z,21.17
2018-12-14T03:22:57.287Z,20.70
2018-12-14T03:25:24.868Z,19.57
2018-12-14T03:27:52.424Z,19.17
2018-12-14T03:30:19.991Z,20.30
2018-12-14T03:32:47.641Z,21.23
2018-12-14T03:35:15.575Z,20.43
2018-12-14T03:37:43.440Z,20.67
2018-12-14T03:40:11.035Z,20.03
2018-12-14T03:42:38.862Z,20.77
2018-12-14T03:45:06.500Z,20.13
2018-12-14T03:47:34.118Z,20.30
2018-12-14T03:50:01.975Z,19.57
2018-12-14T03:52:29.598Z,20.67
2018-12-14T03:54:57.191Z,21.33
2018-12-14T03:57:24.739Z,20.50
2018-12-14T03:59:52.348Z,19.87
2018-12-14T04:02:19.909Z,20.77
2018-12-14T04:04:47.461Z,20.23
2018-12-14T04:07:15.407Z,20.87
2018-12-14T04:09:43.271Z,20.57
2018-12-14T04:12:10.870Z,20.50
2018-12-14T04:14:38.683Z,21.23
2018-12-14T04:17:06.503Z,21.83
2018-12-14T04:19:34.124Z,18.67
2018-12-14T04:22:01.684Z,19.63
2018-12-14T04:24:29.266Z,18.43
2018-12-14T04:26:56.833Z,21.10
2018-12-14T04:29:24.434Z,21.40
2018-12-14T04:31:52.010Z,20.17
2018-12-14T04:34:19.565Z,19.73
2018-12-14T04:36:47.110Z,19.80
2018-12-14T04:39:14.703Z,18.57
2018-12-14T04:41:42.578Z,18.23
2018-12-14T04:44:10.144Z,19.10
2018-12-14T04:46:37.733Z,19.50
2018-12-14T04:49:05.276Z,20.07
2018-12-14T04:51:32.891Z,19.47
2018-12-14T04:54:00.464Z,19.20
2018-12-14T04:56:28.046Z,18.77
2018-12-14T04:58:55.628Z,18.87
2018-12-14T05:01:23.203Z,18.80
2018-12-14T05:03:50.782Z,18.90
2018-12-14T05:06:18.382Z,19.23
2018-12-14T05:08:45.917Z,19.43
2018-12-14T05:11:13.824Z,20.07
2018-12-14T05:13:41.395Z,20.50
2018-12-14T05:16:08.950Z,20.57
2018-12-14T05:18:36.668Z,20.50
2018-12-14T05:21:04.245Z,21.00
2018-12-14T05:23:31.789Z,20.23
2018-12-14T05:25:59.366Z,19.50
2018-12-14T05:28:26.978Z,20.30
2018-12-14T05:30:54.547Z,20.43
2018-12-14T05:33:22.128Z,19.93
2018-12-14T05:35:49.683Z,20.80
2018-12-14T05:38:17.604Z,21.30
2018-12-14T05:40:45.195Z,22.33
2018-12-14T05:43:12.842Z,21.83
2018-12-14T05:45:40.457Z,21.70
2018-12-14T05:48:08.026Z,22.20
2018-12-14T05:50:35.762Z,23.17
2018-12-14T05:53:03.324Z,23.53
2018-12-14T05:55:31.250Z,24.70
2018-12-14T05:57:58.856Z,25.00
2018-12-14T06:00:26.676Z,24.63
2018-12-14T06:02:54.297Z,23.60
2018-12-14T06:05:21.956Z,23.93
2018-12-14T06:07:49.538Z,24.00
2018-12-14T06:10:17.113Z,24.27
2018-12-14T06:12:44.728Z,24.10
2018-12-14T06:15:12.363Z,25.40
2018-12-14T06:17:40.430Z,25.07
2018-12-14T06:20:08.281Z,26.27
2018-12-14T06:22:35.852Z,26.70
2018-12-14T06:25:03.700Z,24.60
2018-12-14T06:27:31.280Z,26.77
2018-12-14T06:29:58.866Z,24.40
2018-12-14T06:32:26.438Z,24.60
2018-12-14T06:34:54.037Z,25.57
2018-12-14T06:37:21.822Z,25.97
2018-12-14T06:39:49.376Z,24.13
2018-12-14T06:42:17.308Z,23.97
2018-12-14T06:44:44.878Z,24.53
2018-12-14T06:47:12.534Z,23.17
2018-12-14T06:49:40.145Z,23.43
2018-12-14T06:52:07.767Z,23.40
2018-12-14T06:54:35.318Z,23.13
2018-12-14T06:57:03.108Z,23.27
2018-12-14T06:59:30.667Z,23.73
2018-12-14T07:01:58.406Z,39.13
2018-12-14T07:04:26.161Z,27.97
2018-12-14T07:06:53.841Z,23.10
2018-12-14T07:09:21.377Z,24.57
2018-12-14T07:11:48.992Z,25.70
2018-12-14T07:14:16.566Z,23.23
2018-12-14T07:16:44.141Z,22.70
2018-12-14T07:19:11.673Z,22.93
2018-12-14T07:21:39.561Z,23.10
2018-12-14T07:24:07.188Z,23.37
2018-12-14T07:26:35.256Z,23.00
2018-12-14T07:29:03.336Z,23.70
2018-12-14T07:31:31.446Z,23.57
2018-12-14T07:33:59.058Z,22.90
2018-12-14T07:36:26.647Z,23.63
2018-12-14T07:38:54.232Z,24.17
2018-12-14T07:41:21.820Z,24.60
2018-12-14T07:43:49.461Z,23.07
2018-12-14T07:48:50.828Z,23.07
2018-12-14T07:51:18.459Z,21.90
2018-12-14T07:53:46.064Z,21.23
2018-12-14T07:56:13.671Z,23.20
2018-12-14T07:58:41.846Z,22.57
2018-12-14T08:01:09.497Z,22.97
2018-12-14T08:03:37.152Z,23.80
2018-12-14T08:06:04.753Z,23.90
2018-12-14T08:08:32.339Z,23.40
2018-12-14T08:10:59.915Z,21.60
2018-12-14T08:13:27.896Z,22.70
2018-12-14T08:15:55.834Z,24.67
2018-12-14T08:18:23.465Z,24.17
2018-12-14T08:20:51.050Z,23.93
2018-12-14T08:23:18.654Z,23.73
2018-12-14T08:25:46.207Z,23.70
2018-12-14T08:28:13.791Z,23.67
2018-12-14T08:30:41.406Z,23.90
2018-12-14T08:33:09.567Z,25.17
2018-12-14T08:35:37.179Z,24.63
2018-12-14T08:38:04.850Z,24.80
2018-12-14T08:40:32.509Z,25.13
2018-12-14T08:43:00.226Z,25.30
2018-12-14T08:45:28.091Z,24.10
2018-12-14T08:47:55.801Z,24.00
2018-12-14T08:50:23.467Z,23.30
2018-12-14T08:52:51.039Z,26.40
2018-12-14T08:55:18.701Z,23.70
2018-12-14T08:57:46.309Z,25.90
2018-12-14T09:00:13.858Z,24.30
2018-12-14T09:02:41.427Z,24.50
2018-12-14T09:05:09.027Z,22.77
2018-12-14T09:07:36.671Z,24.07
2018-12-14T09:10:05.856Z,24.80
2018-12-14T09:12:33.500Z,23.50
2018-12-14T09:15:01.134Z,24.63
2018-12-14T09:17:28.669Z,23.53
2018-12-14T09:19:56.368Z,23.47
2018-12-14T09:22:23.974Z,23.53
2018-12-14T09:24:51.550Z,21.63
2018-12-14T09:27:19.129Z,22.83
2018-12-14T09:29:46.733Z,24.20
2018-12-14T09:32:14.544Z,24.00
2018-12-14T09:34:42.324Z,22.80
2018-12-14T09:37:09.878Z,23.30
2018-12-14T09:39:37.513Z,22.77
2018-12-14T09:42:05.471Z,21.20
2018-12-14T09:44:33.112Z,21.87
2018-12-14T09:47:00.693Z,22.00
2018-12-14T09:49:28.243Z,19.13
2018-12-14T09:51:55.806Z,20.30
2018-12-14T09:54:23.389Z,21.23
2018-12-14T09:56:50.957Z,21.20
2018-12-14T09:59:18.591Z,20.47
2018-12-14T10:01:46.151Z,21.30
2018-12-14T10:04:13.721Z,20.80
2018-12-14T10:06:42.212Z,19.63
2018-12-14T10:09:09.761Z,20.97
2018-12-14T10:11:37.358Z,20.03
2018-12-14T10:14:05.192Z,20.43
2018-12-14T10:16:32.780Z,18.23
2018-12-14T10:19:00.752Z,19.00
2018-12-14T10:21:28.343Z,18.70
2018-12-14T10:23:55.946Z,19.43
2018-12-14T10:26:23.554Z,18.17
2018-12-14T10:28:51.274Z,17.87
2018-12-14T10:31:18.880Z,18.73
2018-12-14T10:33:46.523Z,19.20
2018-12-14T10:36:14.101Z,18.03
2018-12-14T10:38:41.680Z,18.87
2018-12-14T10:41:09.240Z,17.30
2018-12-14T10:43:36.838Z,16.83
2018-12-14T10:46:04.386Z,18.10
2018-12-14T10:48:31.948Z,18.10
2018-12-14T10:51:00.284Z,18.80
2018-12-14T10:53:27.862Z,18.03
2018-12-14T10:55:55.433Z,17.07
2018-12-14T10:58:23.037Z,17.00
2018-12-14T11:00:56.344Z,16.83
2018-12-14T11:03:23.934Z,16.80
2018-12-14T11:05:51.571Z,16.20
2018-12-14T11:08:19.273Z,16.47
2018-12-14T11:10:47.029Z,17.13
2018-12-14T11:13:14.707Z,15.83
2018-12-14T11:15:42.609Z,15.50
2018-12-14T11:18:10.176Z,15.80
2018-12-14T11:20:37.751Z,16.70
2018-12-14T11:23:05.357Z,17.10
2018-12-14T11:25:32.954Z,15.10
2018-12-14T11:28:00.582Z,15.50
2018-12-14T11:30:28.182Z,15.40
2018-12-14T11:32:55.750Z,16.80
2018-12-14T11:35:23.354Z,15.30
2018-12-14T11:37:50.941Z,15.33
2018-12-14T11:40:18.482Z,15.80
2018-12-14T11:42:46.041Z,16.13
2018-12-14T11:45:13.955Z,14.70
2018-12-14T11:47:41.503Z,15.83
2018-12-14T11:50:09.143Z,15.33
2018-12-14T11:52:36.748Z,15.40
2018-12-14T11:55:06.330Z,15.67
2018-12-14T11:57:33.950Z,14.33
2018-12-14T12:00:01.519Z,15.10
2018-12-14T12:02:29.105Z,15.77
2018-12-14T12:04:56.886Z,14.30
2018-12-14T12:07:24.447Z,15.10
2018-12-14T12:09:52.024Z,14.43
2018-12-14T12:12:20.085Z,14.40
2018-12-14T12:14:47.642Z,13.67
2018-12-14T12:17:15.303Z,13.87
2018-12-14T12:19:42.971Z,12.57
2018-12-14T12:22:10.569Z,13.83
2018-12-14T12:24:38.133Z,13.87
2018-12-14T12:27:05.874Z,14.80
2018-12-14T12:29:33.490Z,13.70
2018-12-14T12:32:01.066Z,13.87
2018-12-14T12:34:28.685Z,13.83
2018-12-14T12:36:56.284Z,14.50
2018-12-14T12:39:24.370Z,13.90
2018-12-14T12:41:52.010Z,13.40
2018-12-14T12:44:19.636Z,13.23
2018-12-14T12:46:47.301Z,14.10
2018-12-14T12:49:14.884Z,13.70
2018-12-14T12:51:42.412Z,13.90
2018-12-14T12:54:10.267Z,14.47
2018-12-14T12:56:37.888Z,15.30
2018-12-14T12:59:05.551Z,13.90
2018-12-14T13:01:33.157Z,14.07
2018-12-14T13:04:00.764Z,14.30
2018-12-14T13:06:28.366Z,14.30
2018-12-14T13:08:55.918Z,14.80
2018-12-14T13:11:23.678Z,14.50
2018-12-14T13:13:51.272Z,15.27
2018-12-14T13:16:18.872Z,14.37
2018-12-14T13:18:46.632Z,15.77
2018-12-14T13:21:14.206Z,15.53
2018-12-14T13:23:41.874Z,16.20
2018-12-14T13:26:09.431Z,16.57
2018-12-14T13:28:37.091Z,16.40
2018-12-14T13:31:04.747Z,17.07
2018-12-14T13:33:32.382Z,17.10
2018-12-14T13:35:59.942Z,17.57
2018-12-14T13:38:27.521Z,16.50
2018-12-14T13:40:55.163Z,18.00
2018-12-14T13:43:22.752Z,17.50
2018-12-14T13:45:53.443Z,16.73
2018-12-14T13:48:21.064Z,17.83
2018-12-14T13:50:48.852Z,16.90
2018-12-14T13:53:16.452Z,14.43
2018-12-14T13:55:44.066Z,13.03
2018-12-14T13:58:11.663Z,13.73
2018-12-14T14:00:39.225Z,13.37
2018-12-14T14:03:06.809Z,13.40
2018-12-14T14:05:34.416Z,12.37
2018-12-14T14:08:01.988Z,12.70
2018-12-14T14:10:29.633Z,12.23
2018-12-14T14:12:57.161Z,12.73
2018-12-14T14:15:24.752Z,12.73
2018-12-14T14:17:52.408Z,14.10
2018-12-14T14:20:20.041Z,15.13
2018-12-14T14:22:47.759Z,13.80
2018-12-14T14:25:17.695Z,15.17
2018-12-14T14:27:45.069Z,14.90
2018-12-14T14:30:12.889Z,16.23
2018-12-14T14:32:40.780Z,16.23
2018-12-14T14:35:08.363Z,16.53
2018-12-14T14:37:35.971Z,16.60
2018-12-14T14:40:04.238Z,16.40
2018-12-14T14:42:31.825Z,17.53
2018-12-14T14:45:00.055Z,18.10
2018-12-14T14:47:27.854Z,18.00
2018-12-14T14:49:55.753Z,18.40
2018-12-14T14:52:23.331Z,19.13
2018-12-14T14:54:51.227Z,19.23
2018-12-14T14:57:18.965Z,19.83
2018-12-14T14:59:46.815Z,19.33
2018-12-14T15:02:14.395Z,19.37
2018-12-14T15:04:42.011Z,18.90
2018-12-14T15:07:09.809Z,20.10
2018-12-14T15:09:37.403Z,19.70
2018-12-14T15:12:05.341Z,20.63
2018-12-14T15:14:32.948Z,22.60
2018-12-14T15:17:00.504Z,21.73
2018-12-14T15:19:28.146Z,22.20
2018-12-14T15:21:55.715Z,21.77
2018-12-14T15:24:23.290Z,19.97
2018-12-14T15:26:50.848Z,21.90
2018-12-14T15:29:18.447Z,23.60
2018-12-14T15:31:47.109Z,23.20
2018-12-14T15:34:15.236Z,24.33
2018-12-14T15:36:42.839Z,24.60
2018-12-14T15:39:10.451Z,23.27
2018-12-14T15:41:38.037Z,28.10
2018-12-14T15:44:05.615Z,28.30
2018-12-14T15:46:33.289Z,25.20
2018-12-14T15:49:00.843Z,25.90
2018-12-14T15:51:28.531Z,24.73
2018-12-14T15:53:56.168Z,26.47
2018-12-14T15:56:23.728Z,26.27
2018-12-14T15:58:51.336Z,22.87
2018-12-14T16:01:18.926Z,24.90
2018-12-14T16:03:46.576Z,24.17
2018-12-14T16:06:14.547Z,24.67
2018-12-14T16:08:42.129Z,25.90
2018-12-14T16:11:09.714Z,28.10
2018-12-14T16:13:37.272Z,25.93
2018-12-14T16:16:05.071Z,26.77
2018-12-14T16:18:32.789Z,25.87
2018-12-14T16:21:00.433Z,40.10
2018-12-14T16:23:28.296Z,26.77
2018-12-14T16:25:55.917Z,26.73
2018-12-14T16:28:23.525Z,25.80
2018-12-14T16:30:51.082Z,26.50
2018-12-14T16:33:18.684Z,28.10
2018-12-14T16:35:47.068Z,28.20
2018-12-14T16:38:14.669Z,26.40
2018-12-14T16:40:42.304Z,28.60
2018-12-14T16:43:09.894Z,27.67
2018-12-14T16:45:37.766Z,27.50
2018-12-14T16:48:05.363Z,27.53
2018-12-14T16:50:33.001Z,25.97
2018-12-14T16:53:00.653Z,27.60
2018-12-14T16:55:28.343Z,27.40
2018-12-14T16:57:55.890Z,27.07
2018-12-14T17:00:23.468Z,42.00
2018-12-14T17:02:51.407Z,29.37
2018-12-14T17:05:18.985Z,27.60
2018-12-14T17:07:46.555Z,27.50
2018-12-14T17:10:14.295Z,29.90
2018-12-14T17:12:41.893Z,27.90
2018-12-14T17:15:09.598Z,27.57
2018-12-14T17:17:37.371Z,27.37
2018-12-14T17:20:05.500Z,27.50
2018-12-14T17:22:33.140Z,27.00
2018-12-14T17:25:00.774Z,26.67
2018-12-14T17:27:28.356Z,27.23
2018-12-14T17:29:56.012Z,28.73
2018-12-14T17:32:23.581Z,27.47
2018-12-14T17:34:51.159Z,27.60
2018-12-14T17:37:19.118Z,28.40
2018-12-14T17:39:46.721Z,26.50
2018-12-14T17:42:14.335Z,27.43
2018-12-14T17:44:41.885Z,27.63
2018-12-14T17:47:09.565Z,28.60
2018-12-14T17:49:37.139Z,28.93
2018-12-14T17:52:05.195Z,28.60
2018-12-14T17:54:32.786Z,29.37
2018-12-14T17:57:00.384Z,26.97
2018-12-14T17:59:27.922Z,29.70
2018-12-14T18:01:55.543Z,29.07
2018-12-14T18:04:23.595Z,27.80
2018-12-14T18:06:51.170Z,29.17
2018-12-14T18:09:18.737Z,29.00
2018-12-14T18:11:46.351Z,27.53
2018-12-14T18:14:13.947Z,28.20
2018-12-14T18:16:41.819Z,29.50
2018-12-14T18:19:09.400Z,26.80
2018-12-14T18:21:37.008Z,28.90
2018-12-14T18:24:04.595Z,29.47
2018-12-14T18:26:32.210Z,28.87
2018-12-14T18:28:59.804Z,28.33
2018-12-14T18:31:27.421Z,29.13
2018-12-14T18:33:54.972Z,28.97
2018-12-14T18:36:22.584Z,29.37
2018-12-14T18:38:50.204Z,29.20
2018-12-14T18:41:17.829Z,29.70
2018-12-14T18:43:45.411Z,31.50
2018-12-14T18:46:12.977Z,28.13
2018-12-14T18:48:40.603Z,30.77
2018-12-14T18:51:08.229Z,31.00
2018-12-14T18:53:35.874Z,31.03
2018-12-14T18:56:03.506Z,29.90
2018-12-14T18:58:31.653Z,31.03
2018-12-14T19:00:59.223Z,30.87
2018-12-14T19:03:26.794Z,30.67
2018-12-14T19:05:54.421Z,31.70
2018-12-14T19:08:22.031Z,32.13
2018-12-14T19:10:49.696Z,31.13
2018-12-14T19:13:17.225Z,31.70
2018-12-14T19:15:44.841Z,30.97
2018-12-14T19:18:12.425Z,31.30
2018-12-14T19:20:39.990Z,29.77
2018-12-14T19:23:07.598Z,32.60
2018-12-14T19:25:35.159Z,32.80
2018-12-14T19:28:02.786Z,32.37
2018-12-14T19:30:30.475Z,32.10
2018-12-14T19:32:58.054Z,30.07
2018-12-14T19:35:25.642Z,31.73
2018-12-14T19:37:53.273Z,31.50
2018-12-14T19:40:21.235Z,32.30
2018-12-14T19:42:48.812Z,32.10
2018-12-14T19:45:16.406Z,33.27
2018-12-14T19:47:44.008Z,32.47
2018-12-14T19:50:11.564Z,31.77
2018-12-14T19:52:39.207Z,31.63
2018-12-14T19:55:08.635Z,31.77
2018-12-14T19:57:36.224Z,32.63
2018-12-14T20:00:07.252Z,31.17
2018-12-14T20:02:35.344Z,33.20
2018-12-14T20:05:02.899Z,31.50
2018-12-14T20:07:30.571Z,32.03
2018-12-14T20:09:58.127Z,32.40
2018-12-14T20:12:25.663Z,33.37
2018-12-14T20:14:53.248Z,32.83
2018-12-14T20:17:20.838Z,31.93
2018-12-14T20:19:48.407Z,32.83
2018-12-14T20:22:16.000Z,31.77
2018-12-14T20:24:43.565Z,32.53
2018-12-14T20:27:11.153Z,34.17
2018-12-14T20:29:38.750Z,33.27
2018-12-14T20:32:06.361Z,33.07
2018-12-14T20:34:33.970Z,31.87
2018-12-14T20:37:01.519Z,33.43
2018-12-14T20:39:29.063Z,33.57
2018-12-14T20:41:56.672Z,31.53
2018-12-14T20:44:24.235Z,33.57
2018-12-14T20:46:51.837Z,31.00
2018-12-14T20:49:19.433Z,31.93
2018-12-14T20:51:46.982Z,32.70
2018-12-14T20:54:14.600Z,30.93
2018-12-14T20:56:42.515Z,32.70
2018-12-14T20:59:10.104Z,30.70
2018-12-14T21:01:37.703Z,31.47
2018-12-14T21:04:05.251Z,31.67
2018-12-14T21:06:32.817Z,30.37
2018-12-14T21:09:00.400Z,31.43
2018-12-14T21:11:27.984Z,32.00
2018-12-14T21:13:55.572Z,32.93
2018-12-14T21:16:26.059Z,32.00
2018-12-14T21:18:53.161Z,29.93
2018-12-14T21:21:20.726Z,33.10
2018-12-14T21:23:49.024Z,31.67
2018-12-14T21:26:16.710Z,30.73
2018-12-14T21:28:44.273Z,30.33
2018-12-14T21:31:11.821Z,31.87
2018-12-14T21:33:39.541Z,31.23
2018-12-14T21:36:07.152Z,30.10
2018-12-14T21:38:34.852Z,30.20
2018-12-14T21:41:02.421Z,30.30
2018-12-14T21:43:29.992Z,28.87
2018-12-14T21:45:57.616Z,27.87
2018-12-14T21:48:25.259Z,26.67
2018-12-14T21:50:52.886Z,28.27
2018-12-14T21:53:21.599Z,29.50
2018-12-14T21:55:49.409Z,29.43
2018-12-14T21:58:17.134Z,29.93
2018-12-14T22:00:44.705Z,29.03
2018-12-14T22:03:12.353Z,29.23
2018-12-14T22:05:40.053Z,28.43
2018-12-14T22:08:07.647Z,31.73
2018-12-14T22:10:35.340Z,28.57
2018-12-14T22:13:02.938Z,27.20
2018-12-14T22:15:30.497Z,28.43
2018-12-14T22:17:58.065Z,29.13
2018-12-14T22:20:25.664Z,27.50
2018-12-14T22:22:53.266Z,28.63
2018-12-14T22:25:20.850Z,28.33
2018-12-14T22:27:48.418Z,27.43
2018-12-14T22:30:15.976Z,28.50
2018-12-14T22:32:43.914Z,27.10
2018-12-14T22:35:11.499Z,27.23
2018-12-14T22:37:39.241Z,28.77
2018-12-14T22:40:07.396Z,27.07
2018-12-14T22:42:35.542Z,27.80
2018-12-14T22:45:03.305Z,27.47
2018-12-14T22:47:30.912Z,28.33
2018-12-14T22:49:58.570Z,28.30
2018-12-14T22:52:26.141Z,27.10
2018-12-14T22:54:53.808Z,26.17
2018-12-14T22:57:21.367Z,25.00
2018-12-14T22:59:49.013Z,26.03
2018-12-14T23:02:16.788Z,27.03
2018-12-14T23:04:44.394Z,26.37
2018-12-14T23:07:12.423Z,26.40
2018-12-14T23:09:40.195Z,25.10
2018-12-14T23:12:07.781Z,27.10
2018-12-14T23:14:35.717Z,24.80
2018-12-14T23:17:03.280Z,26.23
2018-12-14T23:19:31.139Z,26.67
2018-12-14T23:21:58.703Z,25.50
2018-12-14T23:24:26.257Z,25.07
2018-12-14T23:26:54.140Z,24.53
2018-12-14T23:29:21.697Z,23.53
2018-12-14T23:31:49.256Z,22.23
2018-12-14T23:34:17.693Z,23.20
2018-12-14T23:36:45.277Z,24.20
2018-12-14T23:39:12.860Z,22.60
2018-12-14T23:41:40.444Z,23.20
2018-12-14T23:44:08.032Z,22.67
2018-12-14T23:46:35.660Z,21.67
2018-12-14T23:49:03.373Z,21.83
2018-12-14T23:51:31.040Z,24.10
2018-12-14T23:53:58.627Z,24.10
2018-12-14T23:56:26.211Z,23.67
2018-12-14T23:58:53.806Z,22.87
